sensor_id;sensor_type;location;lat;lon;timestamp;P1;P2;P0
49064;PMS5003;34876;51.464;-0.150;2023-04-06T00:03:47;6;6;
49064;PMS5003;34876;51.464;-0.150;2023-04-06T00:06:17;9;6;
49064;PMS5003;34876;51.464;-0.150;2023-04-06T00:08:48;9;8;
49064;PMS5003;34876;51.464;-0.150;2023-04-06T00:11:17;7;7;
49064;PMS5003;34876;51.464;-0.150;2023-04-06T00:13:47;6;6;
49064;PMS5003;34876;51.464;-0.150;2023-04-06T00:16:16;8;8;
49064;PMS5003;34876;51.464;-0.150;2023-04-06T00:18:46;12;9;
49064;PMS5003;34876;51.464;-0.150;2023-04-06T00:21:16;11;10;
49064;PMS5003;34876;51.464;-0.150;2023-04-06T00:23:44;9;9;
49064;PMS5003;34876;51.464;-0.150;2023-04-06T00:26:15;10;8;
49064;PMS5003;34876;51.464;-0.150;2023-04-06T00:28:44;9;8;
49064;PMS5003;34876;51.464;-0.150;2023-04-06T00:31:14;7;7;
49064;PMS5003;34876;51.464;-0.150;2023-04-06T00:33:44;8;6;
49064;PMS5003;34876;51.464;-0.150;2023-04-06T00:36:13;7;7;
49064;PMS5003;34876;51.464;-0.150;2023-04-06T00:38:44;8;8;
49064;PMS5003;34876;51.464;-0.150;2023-04-06T00:41:19;8;8;
49064;PMS5003;34876;51.464;-0.150;2023-04-06T00:43:50;7;7;
49064;PMS5003;34876;51.464;-0.150;2023-04-06T00:46:20;6;6;
49064;PMS5003;34876;51.464;-0.150;2023-04-06T00:48:51;8;8;
49064;PMS5003;34876;51.464;-0.150;2023-04-06T00:51:20;7;7;
49064;PMS5003;34876;51.464;-0.150;2023-04-06T00:53:51;5;5;
49064;PMS5003;34876;51.464;-0.150;2023-04-06T00:56:21;7;7;
49064;PMS5003;34876;51.464;-0.150;2023-04-06T00:58:49;7;7;
49064;PMS5003;34876;51.464;-0.150;2023-04-06T01:01:20;7;7;
49064;PMS5003;34876;51.464;-0.150;2023-04-06T01:03:49;7;7;
49064;PMS5003;34876;51.464;-0.150;2023-04-06T01:06:20;7;6;
49064;PMS5003;34876;51.464;-0.150;2023-04-06T01:08:51;8;8;
49064;PMS5003;34876;51.464;-0.150;2023-04-06T01:11:19;8;8;
49064;PMS5003;34876;51.464;-0.150;2023-04-06T01:13:50;6;6;
49064;PMS5003;34876;51.464;-0.150;2023-04-06T01:16:19;7;6;
49064;PMS5003;34876;51.464;-0.150;2023-04-06T01:18:52;7;6;
49064;PMS5003;34876;51.464;-0.150;2023-04-06T01:21:21;8;6;
49064;PMS5003;34876;51.464;-0.150;2023-04-06T01:23:54;10;7;
49064;PMS5003;34876;51.464;-0.150;2023-04-06T01:26:29;7;7;
49064;PMS5003;34876;51.464;-0.150;2023-04-06T01:29:05;8;6;
49064;PMS5003;34876;51.464;-0.150;2023-04-06T01:31:36;6;6;
49064;PMS5003;34876;51.464;-0.150;2023-04-06T01:34:15;7;7;
49064;PMS5003;34876;51.464;-0.150;2023-04-06T01:36:45;6;6;
49064;PMS5003;34876;51.464;-0.150;2023-04-06T01:39:14;4;4;
49064;PMS5003;34876;51.464;-0.150;2023-04-06T01:41:43;7;6;
49064;PMS5003;34876;51.464;-0.150;2023-04-06T01:44:12;5;5;
49064;PMS5003;34876;51.464;-0.150;2023-04-06T01:46:44;4;4;
49064;PMS5003;34876;51.464;-0.150;2023-04-06T01:49:14;5;5;
49064;PMS5003;34876;51.464;-0.150;2023-04-06T01:51:42;6;6;
49064;PMS5003;34876;51.464;-0.150;2023-04-06T01:54:12;5;5;
49064;PMS5003;34876;51.464;-0.150;2023-04-06T01:56:41;6;6;
49064;PMS5003;34876;51.464;-0.150;2023-04-06T01:59:10;6;6;
49064;PMS5003;34876;51.464;-0.150;2023-04-06T02:01:39;5;5;
49064;PMS5003;34876;51.464;-0.150;2023-04-06T02:04:09;6;6;
49064;PMS5003;34876;51.464;-0.150;2023-04-06T02:06:37;5;5;
49064;PMS5003;34876;51.464;-0.150;2023-04-06T02:09:06;6;4;
49064;PMS5003;34876;51.464;-0.150;2023-04-06T02:11:37;7;7;
49064;PMS5003;34876;51.464;-0.150;2023-04-06T02:14:07;5;5;
49064;PMS5003;34876;51.464;-0.150;2023-04-06T02:16:37;7;6;
49064;PMS5003;34876;51.464;-0.150;2023-04-06T02:19:06;5;5;
49064;PMS5003;34876;51.464;-0.150;2023-04-06T02:21:36;5;5;
49064;PMS5003;34876;51.464;-0.150;2023-04-06T02:24:06;7;6;
49064;PMS5003;34876;51.464;-0.150;2023-04-06T02:26:36;4;4;
49064;PMS5003;34876;51.464;-0.150;2023-04-06T02:29:05;6;6;
49064;PMS5003;34876;51.464;-0.150;2023-04-06T02:31:34;5;5;
49064;PMS5003;34876;51.464;-0.150;2023-04-06T02:34:03;3;3;
49064;PMS5003;34876;51.464;-0.150;2023-04-06T02:36:32;4;4;
49064;PMS5003;34876;51.464;-0.150;2023-04-06T02:39:00;8;6;
49064;PMS5003;34876;51.464;-0.150;2023-04-06T02:41:30;6;5;
49064;PMS5003;34876;51.464;-0.150;2023-04-06T02:44:06;4;4;
49064;PMS5003;34876;51.464;-0.150;2023-04-06T02:46:37;4;4;
49064;PMS5003;34876;51.464;-0.150;2023-04-06T02:49:07;7;7;
49064;PMS5003;34876;51.464;-0.150;2023-04-06T02:51:36;4;4;
49064;PMS5003;34876;51.464;-0.150;2023-04-06T02:54:06;5;5;
49064;PMS5003;34876;51.464;-0.150;2023-04-06T02:56:35;5;5;
49064;PMS5003;34876;51.464;-0.150;2023-04-06T02:59:04;6;6;
49064;PMS5003;34876;51.464;-0.150;2023-04-06T03:01:34;6;6;
49064;PMS5003;34876;51.464;-0.150;2023-04-06T03:04:02;7;7;
49064;PMS5003;34876;51.464;-0.150;2023-04-06T03:06:32;7;5;
49064;PMS5003;34876;51.464;-0.150;2023-04-06T03:09:02;7;7;
49064;PMS5003;34876;51.464;-0.150;2023-04-06T03:11:31;6;5;
49064;PMS5003;34876;51.464;-0.150;2023-04-06T03:14:00;6;5;
49064;PMS5003;34876;51.464;-0.150;2023-04-06T03:16:30;7;7;
49064;PMS5003;34876;51.464;-0.150;2023-04-06T03:19:00;5;5;
49064;PMS5003;34876;51.464;-0.150;2023-04-06T03:21:30;6;6;
49064;PMS5003;34876;51.464;-0.150;2023-04-06T03:23:59;6;6;
49064;PMS5003;34876;51.464;-0.150;2023-04-06T03:26:30;6;6;
49064;PMS5003;34876;51.464;-0.150;2023-04-06T03:29:00;6;6;
49064;PMS5003;34876;51.464;-0.150;2023-04-06T03:31:29;8;6;
49064;PMS5003;34876;51.464;-0.150;2023-04-06T03:33:59;5;5;
49064;PMS5003;34876;51.464;-0.150;2023-04-06T03:36:29;7;6;
49064;PMS5003;34876;51.464;-0.150;2023-04-06T03:38:59;4;4;
49064;PMS5003;34876;51.464;-0.150;2023-04-06T03:41:29;4;4;
49064;PMS5003;34876;51.464;-0.150;2023-04-06T03:43:59;5;3;
49064;PMS5003;34876;51.464;-0.150;2023-04-06T03:46:30;6;5;
49064;PMS5003;34876;51.464;-0.150;2023-04-06T03:49:00;5;5;
49064;PMS5003;34876;51.464;-0.150;2023-04-06T03:51:30;6;6;
49064;PMS5003;34876;51.464;-0.150;2023-04-06T03:53:59;5;5;
49064;PMS5003;34876;51.464;-0.150;2023-04-06T03:56:35;5;5;
49064;PMS5003;34876;51.464;-0.150;2023-04-06T03:59:04;4;4;
49064;PMS5003;34876;51.464;-0.150;2023-04-06T04:01:34;4;4;
49064;PMS5003;34876;51.464;-0.150;2023-04-06T04:04:03;3;3;
49064;PMS5003;34876;51.464;-0.150;2023-04-06T04:06:40;4;4;
49064;PMS5003;34876;51.464;-0.150;2023-04-06T04:09:11;3;3;
49064;PMS5003;34876;51.464;-0.150;2023-04-06T04:11:40;4;4;
49064;PMS5003;34876;51.464;-0.150;2023-04-06T04:14:10;4;4;
49064;PMS5003;34876;51.464;-0.150;2023-04-06T04:16:40;6;5;
49064;PMS5003;34876;51.464;-0.150;2023-04-06T04:19:09;3;3;
49064;PMS5003;34876;51.464;-0.150;2023-04-06T04:21:42;3;3;
49064;PMS5003;34876;51.464;-0.150;2023-04-06T04:24:11;5;5;
49064;PMS5003;34876;51.464;-0.150;2023-04-06T04:26:40;4;4;
49064;PMS5003;34876;51.464;-0.150;2023-04-06T04:29:09;4;4;
49064;PMS5003;34876;51.464;-0.150;2023-04-06T04:31:39;5;5;
49064;PMS5003;34876;51.464;-0.150;2023-04-06T04:34:08;3;3;
49064;PMS5003;34876;51.464;-0.150;2023-04-06T04:36:37;4;4;
49064;PMS5003;34876;51.464;-0.150;2023-04-06T04:39:06;4;4;
49064;PMS5003;34876;51.464;-0.150;2023-04-06T04:41:34;3;3;
49064;PMS5003;34876;51.464;-0.150;2023-04-06T04:44:03;4;4;
49064;PMS5003;34876;51.464;-0.150;2023-04-06T04:46:32;2;2;
49064;PMS5003;34876;51.464;-0.150;2023-04-06T04:49:01;3;3;
49064;PMS5003;34876;51.464;-0.150;2023-04-06T04:51:30;3;3;
49064;PMS5003;34876;51.464;-0.150;2023-04-06T04:53:59;3;3;
49064;PMS5003;34876;51.464;-0.150;2023-04-06T04:56:29;2;2;
49064;PMS5003;34876;51.464;-0.150;2023-04-06T04:58:59;3;3;
49064;PMS5003;34876;51.464;-0.150;2023-04-06T05:01:28;2;2;
49064;PMS5003;34876;51.464;-0.150;2023-04-06T05:03:57;4;3;
49064;PMS5003;34876;51.464;-0.150;2023-04-06T05:06:27;4;4;
49064;PMS5003;34876;51.464;-0.150;2023-04-06T05:08:57;5;4;
49064;PMS5003;34876;51.464;-0.150;2023-04-06T05:11:26;4;4;
49064;PMS5003;34876;51.464;-0.150;2023-04-06T05:13:54;3;3;
49064;PMS5003;34876;51.464;-0.150;2023-04-06T05:16:24;3;3;
49064;PMS5003;34876;51.464;-0.150;2023-04-06T05:18:54;4;4;
49064;PMS5003;34876;51.464;-0.150;2023-04-06T05:21:24;2;2;
49064;PMS5003;34876;51.464;-0.150;2023-04-06T05:23:53;3;3;
49064;PMS5003;34876;51.464;-0.150;2023-04-06T05:26:22;4;4;
49064;PMS5003;34876;51.464;-0.150;2023-04-06T05:28:52;2;2;
49064;PMS5003;34876;51.464;-0.150;2023-04-06T05:31:21;3;3;
49064;PMS5003;34876;51.464;-0.150;2023-04-06T05:33:50;3;3;
49064;PMS5003;34876;51.464;-0.150;2023-04-06T05:36:24;4;3;
49064;PMS5003;34876;51.464;-0.150;2023-04-06T05:38:54;4;4;
49064;PMS5003;34876;51.464;-0.150;2023-04-06T05:41:23;3;3;
49064;PMS5003;34876;51.464;-0.150;2023-04-06T05:43:52;2;2;
49064;PMS5003;34876;51.464;-0.150;2023-04-06T05:46:21;2;2;
49064;PMS5003;34876;51.464;-0.150;2023-04-06T05:48:51;1;1;
49064;PMS5003;34876;51.464;-0.150;2023-04-06T05:51:20;2;2;
49064;PMS5003;34876;51.464;-0.150;2023-04-06T05:53:49;2;2;
49064;PMS5003;34876;51.464;-0.150;2023-04-06T05:56:18;3;3;
49064;PMS5003;34876;51.464;-0.150;2023-04-06T05:58:47;2;2;
49064;PMS5003;34876;51.464;-0.150;2023-04-06T06:01:16;2;2;
49064;PMS5003;34876;51.464;-0.150;2023-04-06T06:03:45;2;2;
49064;PMS5003;34876;51.464;-0.150;2023-04-06T06:06:14;2;2;
49064;PMS5003;34876;51.464;-0.150;2023-04-06T06:08:43;3;3;
49064;PMS5003;34876;51.464;-0.150;2023-04-06T06:11:12;4;4;
49064;PMS5003;34876;51.464;-0.150;2023-04-06T06:13:42;3;3;
49064;PMS5003;34876;51.464;-0.150;2023-04-06T06:16:11;3;3;
49064;PMS5003;34876;51.464;-0.150;2023-04-06T06:18:41;5;3;
49064;PMS5003;34876;51.464;-0.150;2023-04-06T06:21:10;2;2;
49064;PMS5003;34876;51.464;-0.150;2023-04-06T06:23:41;3;3;
49064;PMS5003;34876;51.464;-0.150;2023-04-06T06:26:11;2;2;
49064;PMS5003;34876;51.464;-0.150;2023-04-06T06:28:40;1;1;
49064;PMS5003;34876;51.464;-0.150;2023-04-06T06:31:09;2;2;
49064;PMS5003;34876;51.464;-0.150;2023-04-06T06:33:38;3;3;
49064;PMS5003;34876;51.464;-0.150;2023-04-06T06:36:07;3;3;
49064;PMS5003;34876;51.464;-0.150;2023-04-06T06:38:36;2;2;
49064;PMS5003;34876;51.464;-0.150;2023-04-06T06:41:05;3;3;
49064;PMS5003;34876;51.464;-0.150;2023-04-06T06:43:35;3;3;
49064;PMS5003;34876;51.464;-0.150;2023-04-06T06:46:04;3;3;
49064;PMS5003;34876;51.464;-0.150;2023-04-06T06:48:33;2;2;
49064;PMS5003;34876;51.464;-0.150;2023-04-06T06:51:02;3;3;
49064;PMS5003;34876;51.464;-0.150;2023-04-06T06:53:32;3;3;
49064;PMS5003;34876;51.464;-0.150;2023-04-06T06:56:06;2;2;
49064;PMS5003;34876;51.464;-0.150;2023-04-06T06:58:35;2;2;
49064;PMS5003;34876;51.464;-0.150;2023-04-06T07:01:05;3;3;
49064;PMS5003;34876;51.464;-0.150;2023-04-06T07:03:40;2;2;
49064;PMS5003;34876;51.464;-0.150;2023-04-06T07:06:09;1;1;
49064;PMS5003;34876;51.464;-0.150;2023-04-06T07:08:38;2;2;
49064;PMS5003;34876;51.464;-0.150;2023-04-06T07:11:08;2;2;
49064;PMS5003;34876;51.464;-0.150;2023-04-06T07:13:37;2;2;
49064;PMS5003;34876;51.464;-0.150;2023-04-06T07:16:07;2;2;
49064;PMS5003;34876;51.464;-0.150;2023-04-06T07:18:36;3;3;
49064;PMS5003;34876;51.464;-0.150;2023-04-06T07:21:05;1;1;
49064;PMS5003;34876;51.464;-0.150;2023-04-06T07:23:40;3;3;
49064;PMS5003;34876;51.464;-0.150;2023-04-06T07:26:10;2;2;
49064;PMS5003;34876;51.464;-0.150;2023-04-06T07:28:39;1;1;
49064;PMS5003;34876;51.464;-0.150;2023-04-06T07:31:09;1;1;
49064;PMS5003;34876;51.464;-0.150;2023-04-06T07:33:39;2;2;
49064;PMS5003;34876;51.464;-0.150;2023-04-06T07:36:09;2;2;
49064;PMS5003;34876;51.464;-0.150;2023-04-06T07:38:43;2;2;
49064;PMS5003;34876;51.464;-0.150;2023-04-06T07:41:12;3;2;
49064;PMS5003;34876;51.464;-0.150;2023-04-06T07:43:41;1;1;
49064;PMS5003;34876;51.464;-0.150;2023-04-06T07:46:11;2;2;
49064;PMS5003;34876;51.464;-0.150;2023-04-06T07:48:40;4;4;
49064;PMS5003;34876;51.464;-0.150;2023-04-06T07:51:08;3;3;
49064;PMS5003;34876;51.464;-0.150;2023-04-06T07:53:38;3;3;
49064;PMS5003;34876;51.464;-0.150;2023-04-06T07:56:12;2;2;
49064;PMS5003;34876;51.464;-0.150;2023-04-06T07:58:41;2;2;
49064;PMS5003;34876;51.464;-0.150;2023-04-06T08:01:10;2;2;
49064;PMS5003;34876;51.464;-0.150;2023-04-06T08:03:39;2;2;
49064;PMS5003;34876;51.464;-0.150;2023-04-06T08:06:09;2;2;
49064;PMS5003;34876;51.464;-0.150;2023-04-06T08:08:40;3;3;
49064;PMS5003;34876;51.464;-0.150;2023-04-06T08:11:09;2;2;
49064;PMS5003;34876;51.464;-0.150;2023-04-06T08:13:39;2;2;
49064;PMS5003;34876;51.464;-0.150;2023-04-06T08:16:08;1;1;
49064;PMS5003;34876;51.464;-0.150;2023-04-06T08:18:37;3;3;
49064;PMS5003;34876;51.464;-0.150;2023-04-06T08:21:07;2;2;
49064;PMS5003;34876;51.464;-0.150;2023-04-06T08:23:36;3;3;
49064;PMS5003;34876;51.464;-0.150;2023-04-06T08:26:06;2;2;
49064;PMS5003;34876;51.464;-0.150;2023-04-06T08:28:34;2;2;
49064;PMS5003;34876;51.464;-0.150;2023-04-06T08:31:04;2;2;
49064;PMS5003;34876;51.464;-0.150;2023-04-06T08:33:35;1;1;
49064;PMS5003;34876;51.464;-0.150;2023-04-06T08:36:07;2;2;
49064;PMS5003;34876;51.464;-0.150;2023-04-06T08:38:37;2;2;
49064;PMS5003;34876;51.464;-0.150;2023-04-06T08:41:08;1;1;
49064;PMS5003;34876;51.464;-0.150;2023-04-06T08:43:41;3;3;
49064;PMS5003;34876;51.464;-0.150;2023-04-06T08:46:13;1;1;
49064;PMS5003;34876;51.464;-0.150;2023-04-06T08:48:44;3;3;
49064;PMS5003;34876;51.464;-0.150;2023-04-06T08:51:15;3;3;
49064;PMS5003;34876;51.464;-0.150;2023-04-06T08:53:45;2;2;
49064;PMS5003;34876;51.464;-0.150;2023-04-06T08:56:14;2;2;
49064;PMS5003;34876;51.464;-0.150;2023-04-06T08:58:44;1;1;
49064;PMS5003;34876;51.464;-0.150;2023-04-06T09:01:13;3;3;
49064;PMS5003;34876;51.464;-0.150;2023-04-06T09:03:45;3;2;
49064;PMS5003;34876;51.464;-0.150;2023-04-06T09:06:29;2;2;
49064;PMS5003;34876;51.464;-0.150;2023-04-06T09:08:59;2;2;
49064;PMS5003;34876;51.464;-0.150;2023-04-06T09:11:28;4;3;
49064;PMS5003;34876;51.464;-0.150;2023-04-06T09:14:03;3;3;
49064;PMS5003;34876;51.464;-0.150;2023-04-06T09:16:38;2;2;
49064;PMS5003;34876;51.464;-0.150;2023-04-06T09:19:08;2;1;
49064;PMS5003;34876;51.464;-0.150;2023-04-06T09:21:43;2;2;
49064;PMS5003;34876;51.464;-0.150;2023-04-06T09:24:12;0;0;
49064;PMS5003;34876;51.464;-0.150;2023-04-06T09:26:44;2;2;
49064;PMS5003;34876;51.464;-0.150;2023-04-06T09:29:22;1;1;
49064;PMS5003;34876;51.464;-0.150;2023-04-06T09:31:51;2;2;
49064;PMS5003;34876;51.464;-0.150;2023-04-06T09:34:21;3;3;
49064;PMS5003;34876;51.464;-0.150;2023-04-06T09:36:52;3;3;
49064;PMS5003;34876;51.464;-0.150;2023-04-06T09:39:21;1;1;
49064;PMS5003;34876;51.464;-0.150;2023-04-06T09:41:51;0;0;
49064;PMS5003;34876;51.464;-0.150;2023-04-06T09:44:21;1;1;
49064;PMS5003;34876;51.464;-0.150;2023-04-06T09:46:51;1;1;
49064;PMS5003;34876;51.464;-0.150;2023-04-06T09:49:23;1;1;
49064;PMS5003;34876;51.464;-0.150;2023-04-06T09:51:56;1;1;
49064;PMS5003;34876;51.464;-0.150;2023-04-06T09:54:28;2;2;
49064;PMS5003;34876;51.464;-0.150;2023-04-06T09:57:00;2;2;
49064;PMS5003;34876;51.464;-0.150;2023-04-06T09:59:37;1;1;
49064;PMS5003;34876;51.464;-0.150;2023-04-06T10:02:15;2;2;
49064;PMS5003;34876;51.464;-0.150;2023-04-06T10:04:55;2;2;
49064;PMS5003;34876;51.464;-0.150;2023-04-06T10:07:30;1;1;
49064;PMS5003;34876;51.464;-0.150;2023-04-06T10:10:00;0;0;
49064;PMS5003;34876;51.464;-0.150;2023-04-06T10:12:36;1;1;
49064;PMS5003;34876;51.464;-0.150;2023-04-06T10:15:06;1;1;
49064;PMS5003;34876;51.464;-0.150;2023-04-06T10:17:37;3;3;
49064;PMS5003;34876;51.464;-0.150;2023-04-06T10:20:07;1;1;
49064;PMS5003;34876;51.464;-0.150;2023-04-06T10:22:44;1;1;
49064;PMS5003;34876;51.464;-0.150;2023-04-06T10:25:26;2;2;
49064;PMS5003;34876;51.464;-0.150;2023-04-06T10:27:59;1;1;
49064;PMS5003;34876;51.464;-0.150;2023-04-06T10:30:29;1;1;
49064;PMS5003;34876;51.464;-0.150;2023-04-06T10:33:00;1;1;
49064;PMS5003;34876;51.464;-0.150;2023-04-06T10:35:36;4;4;
49064;PMS5003;34876;51.464;-0.150;2023-04-06T10:38:06;1;1;
49064;PMS5003;34876;51.464;-0.150;2023-04-06T10:40:36;2;2;
49064;PMS5003;34876;51.464;-0.150;2023-04-06T10:43:07;2;2;
49064;PMS5003;34876;51.464;-0.150;2023-04-06T10:45:38;2;2;
49064;PMS5003;34876;51.464;-0.150;2023-04-06T10:48:16;3;3;
49064;PMS5003;34876;51.464;-0.150;2023-04-06T10:50:47;2;2;
49064;PMS5003;34876;51.464;-0.150;2023-04-06T10:53:22;2;2;
49064;PMS5003;34876;51.464;-0.150;2023-04-06T10:55:54;2;2;
49064;PMS5003;34876;51.464;-0.150;2023-04-06T10:58:24;3;3;
49064;PMS5003;34876;51.464;-0.150;2023-04-06T11:00:54;0;0;
49064;PMS5003;34876;51.464;-0.150;2023-04-06T11:03:27;1;1;
49064;PMS5003;34876;51.464;-0.150;2023-04-06T11:05:56;2;1;
49064;PMS5003;34876;51.464;-0.150;2023-04-06T11:08:26;2;2;
49064;PMS5003;34876;51.464;-0.150;2023-04-06T11:11:04;1;1;
49064;PMS5003;34876;51.464;-0.150;2023-04-06T11:13:38;1;1;
49064;PMS5003;34876;51.464;-0.150;2023-04-06T11:16:13;0;0;
49064;PMS5003;34876;51.464;-0.150;2023-04-06T11:18:48;2;2;
49064;PMS5003;34876;51.464;-0.150;2023-04-06T11:21:39;1;1;
49064;PMS5003;34876;51.464;-0.150;2023-04-06T11:24:11;3;1;
49064;PMS5003;34876;51.464;-0.150;2023-04-06T11:26:43;1;1;
49064;PMS5003;34876;51.464;-0.150;2023-04-06T11:29:15;2;2;
49064;PMS5003;34876;51.464;-0.150;2023-04-06T11:31:46;2;2;
49064;PMS5003;34876;51.464;-0.150;2023-04-06T11:34:16;1;1;
49064;PMS5003;34876;51.464;-0.150;2023-04-06T11:36:49;2;2;
49064;PMS5003;34876;51.464;-0.150;2023-04-06T11:39:24;1;1;
49064;PMS5003;34876;51.464;-0.150;2023-04-06T11:41:56;2;1;
49064;PMS5003;34876;51.464;-0.150;2023-04-06T11:44:28;2;2;
49064;PMS5003;34876;51.464;-0.150;2023-04-06T11:47:00;3;2;
49064;PMS5003;34876;51.464;-0.150;2023-04-06T11:49:29;1;1;
49064;PMS5003;34876;51.464;-0.150;2023-04-06T11:52:00;2;2;
49064;PMS5003;34876;51.464;-0.150;2023-04-06T11:54:30;1;1;
49064;PMS5003;34876;51.464;-0.150;2023-04-06T11:57:01;1;1;
49064;PMS5003;34876;51.464;-0.150;2023-04-06T11:59:31;2;2;
49064;PMS5003;34876;51.464;-0.150;2023-04-06T12:02:01;2;2;
49064;PMS5003;34876;51.464;-0.150;2023-04-06T12:04:31;4;3;
49064;PMS5003;34876;51.464;-0.150;2023-04-06T12:07:00;2;2;
49064;PMS5003;34876;51.464;-0.150;2023-04-06T12:09:31;2;2;
49064;PMS5003;34876;51.464;-0.150;2023-04-06T12:12:01;1;1;
49064;PMS5003;34876;51.464;-0.150;2023-04-06T12:14:30;3;2;
49064;PMS5003;34876;51.464;-0.150;2023-04-06T12:17:00;1;1;
49064;PMS5003;34876;51.464;-0.150;2023-04-06T12:19:30;1;1;
49064;PMS5003;34876;51.464;-0.150;2023-04-06T12:22:00;0;0;
49064;PMS5003;34876;51.464;-0.150;2023-04-06T12:24:29;3;0;
49064;PMS5003;34876;51.464;-0.150;2023-04-06T12:26:59;1;1;
49064;PMS5003;34876;51.464;-0.150;2023-04-06T12:29:28;1;1;
49064;PMS5003;34876;51.464;-0.150;2023-04-06T12:31:58;2;2;
49064;PMS5003;34876;51.464;-0.150;2023-04-06T12:34:28;0;0;
49064;PMS5003;34876;51.464;-0.150;2023-04-06T12:36:56;0;0;
49064;PMS5003;34876;51.464;-0.150;2023-04-06T12:39:26;0;0;
49064;PMS5003;34876;51.464;-0.150;2023-04-06T12:41:57;2;2;
49064;PMS5003;34876;51.464;-0.150;2023-04-06T12:44:26;2;2;
49064;PMS5003;34876;51.464;-0.150;2023-04-06T12:46:56;3;3;
49064;PMS5003;34876;51.464;-0.150;2023-04-06T12:49:26;3;2;
49064;PMS5003;34876;51.464;-0.150;2023-04-06T12:51:55;0;0;
49064;PMS5003;34876;51.464;-0.150;2023-04-06T12:54:25;2;2;
49064;PMS5003;34876;51.464;-0.150;2023-04-06T12:56:56;3;2;
49064;PMS5003;34876;51.464;-0.150;2023-04-06T12:59:33;2;2;
49064;PMS5003;34876;51.464;-0.150;2023-04-06T13:02:03;3;3;
49064;PMS5003;34876;51.464;-0.150;2023-04-06T13:04:33;2;2;
49064;PMS5003;34876;51.464;-0.150;2023-04-06T13:07:04;2;2;
49064;PMS5003;34876;51.464;-0.150;2023-04-06T13:09:33;1;1;
49064;PMS5003;34876;51.464;-0.150;2023-04-06T13:12:02;1;1;
49064;PMS5003;34876;51.464;-0.150;2023-04-06T13:14:32;1;1;
49064;PMS5003;34876;51.464;-0.150;2023-04-06T13:17:01;1;1;
49064;PMS5003;34876;51.464;-0.150;2023-04-06T13:19:31;2;2;
49064;PMS5003;34876;51.464;-0.150;2023-04-06T13:22:00;2;1;
49064;PMS5003;34876;51.464;-0.150;2023-04-06T13:24:30;1;1;
49064;PMS5003;34876;51.464;-0.150;2023-04-06T13:27:02;1;1;
49064;PMS5003;34876;51.464;-0.150;2023-04-06T13:29:33;3;3;
49064;PMS5003;34876;51.464;-0.150;2023-04-06T13:32:08;2;2;
49064;PMS5003;34876;51.464;-0.150;2023-04-06T13:34:37;2;2;
49064;PMS5003;34876;51.464;-0.150;2023-04-06T13:37:06;2;2;
49064;PMS5003;34876;51.464;-0.150;2023-04-06T13:39:36;1;1;
49064;PMS5003;34876;51.464;-0.150;2023-04-06T13:42:05;1;1;
49064;PMS5003;34876;51.464;-0.150;2023-04-06T13:44:35;3;3;
49064;PMS5003;34876;51.464;-0.150;2023-04-06T13:47:04;2;2;
49064;PMS5003;34876;51.464;-0.150;2023-04-06T13:49:35;2;2;
49064;PMS5003;34876;51.464;-0.150;2023-04-06T13:52:03;2;2;
49064;PMS5003;34876;51.464;-0.150;2023-04-06T13:54:33;1;1;
49064;PMS5003;34876;51.464;-0.150;2023-04-06T13:57:05;2;2;
49064;PMS5003;34876;51.464;-0.150;2023-04-06T13:59:33;1;1;
49064;PMS5003;34876;51.464;-0.150;2023-04-06T14:02:04;1;1;
49064;PMS5003;34876;51.464;-0.150;2023-04-06T14:04:33;0;0;
49064;PMS5003;34876;51.464;-0.150;2023-04-06T14:07:03;2;2;
49064;PMS5003;34876;51.464;-0.150;2023-04-06T14:09:36;2;2;
49064;PMS5003;34876;51.464;-0.150;2023-04-06T14:12:04;3;1;
49064;PMS5003;34876;51.464;-0.150;2023-04-06T14:14:34;2;2;
49064;PMS5003;34876;51.464;-0.150;2023-04-06T14:17:03;1;1;
49064;PMS5003;34876;51.464;-0.150;2023-04-06T14:19:32;1;1;
49064;PMS5003;34876;51.464;-0.150;2023-04-06T14:22:01;2;2;
49064;PMS5003;34876;51.464;-0.150;2023-04-06T14:24:30;3;2;
49064;PMS5003;34876;51.464;-0.150;2023-04-06T14:27:00;3;2;
49064;PMS5003;34876;51.464;-0.150;2023-04-06T14:29:34;0;0;
49064;PMS5003;34876;51.464;-0.150;2023-04-06T14:32:03;3;3;
49064;PMS5003;34876;51.464;-0.150;2023-04-06T14:34:31;2;2;
49064;PMS5003;34876;51.464;-0.150;2023-04-06T14:37:00;1;1;
49064;PMS5003;34876;51.464;-0.150;2023-04-06T14:39:29;2;2;
49064;PMS5003;34876;51.464;-0.150;2023-04-06T14:41:58;1;1;
49064;PMS5003;34876;51.464;-0.150;2023-04-06T14:44:28;1;1;
49064;PMS5003;34876;51.464;-0.150;2023-04-06T14:47:00;2;2;
49064;PMS5003;34876;51.464;-0.150;2023-04-06T14:49:29;3;3;
49064;PMS5003;34876;51.464;-0.150;2023-04-06T14:51:59;1;1;
49064;PMS5003;34876;51.464;-0.150;2023-04-06T14:54:28;2;2;
49064;PMS5003;34876;51.464;-0.150;2023-04-06T14:56:57;2;2;
49064;PMS5003;34876;51.464;-0.150;2023-04-06T14:59:27;1;1;
49064;PMS5003;34876;51.464;-0.150;2023-04-06T15:01:57;2;2;
49064;PMS5003;34876;51.464;-0.150;2023-04-06T15:04:26;2;2;
49064;PMS5003;34876;51.464;-0.150;2023-04-06T15:06:55;1;1;
49064;PMS5003;34876;51.464;-0.150;2023-04-06T15:09:24;2;2;
49064;PMS5003;34876;51.464;-0.150;2023-04-06T15:11:53;2;2;
49064;PMS5003;34876;51.464;-0.150;2023-04-06T15:14:22;2;2;
49064;PMS5003;34876;51.464;-0.150;2023-04-06T15:16:51;2;2;
49064;PMS5003;34876;51.464;-0.150;2023-04-06T15:19:20;1;1;
49064;PMS5003;34876;51.464;-0.150;2023-04-06T15:21:49;4;3;
49064;PMS5003;34876;51.464;-0.150;2023-04-06T15:24:19;2;2;
49064;PMS5003;34876;51.464;-0.150;2023-04-06T15:26:49;3;3;
49064;PMS5003;34876;51.464;-0.150;2023-04-06T15:29:19;3;2;
49064;PMS5003;34876;51.464;-0.150;2023-04-06T15:31:48;2;2;
49064;PMS5003;34876;51.464;-0.150;2023-04-06T15:34:17;5;3;
49064;PMS5003;34876;51.464;-0.150;2023-04-06T15:36:47;1;1;
49064;PMS5003;34876;51.464;-0.150;2023-04-06T15:39:16;3;2;
49064;PMS5003;34876;51.464;-0.150;2023-04-06T15:41:44;1;1;
49064;PMS5003;34876;51.464;-0.150;2023-04-06T15:44:14;3;3;
49064;PMS5003;34876;51.464;-0.150;2023-04-06T15:46:44;5;3;
49064;PMS5003;34876;51.464;-0.150;2023-04-06T15:49:13;3;3;
49064;PMS5003;34876;51.464;-0.150;2023-04-06T15:51:42;3;3;
49064;PMS5003;34876;51.464;-0.150;2023-04-06T15:54:12;2;2;
49064;PMS5003;34876;51.464;-0.150;2023-04-06T15:56:41;3;2;
49064;PMS5003;34876;51.464;-0.150;2023-04-06T15:59:11;2;2;
49064;PMS5003;34876;51.464;-0.150;2023-04-06T16:01:40;4;3;
49064;PMS5003;34876;51.464;-0.150;2023-04-06T16:04:09;3;3;
49064;PMS5003;34876;51.464;-0.150;2023-04-06T16:06:39;2;2;
49064;PMS5003;34876;51.464;-0.150;2023-04-06T16:09:08;2;2;
49064;PMS5003;34876;51.464;-0.150;2023-04-06T16:11:38;2;2;
49064;PMS5003;34876;51.464;-0.150;2023-04-06T16:14:07;3;3;
49064;PMS5003;34876;51.464;-0.150;2023-04-06T16:16:37;2;2;
49064;PMS5003;34876;51.464;-0.150;2023-04-06T16:19:05;3;2;
49064;PMS5003;34876;51.464;-0.150;2023-04-06T16:21:34;2;2;
49064;PMS5003;34876;51.464;-0.150;2023-04-06T16:24:03;3;3;
49064;PMS5003;34876;51.464;-0.150;2023-04-06T16:26:32;2;2;
49064;PMS5003;34876;51.464;-0.150;2023-04-06T16:29:02;2;2;
49064;PMS5003;34876;51.464;-0.150;2023-04-06T16:31:31;3;3;
49064;PMS5003;34876;51.464;-0.150;2023-04-06T16:34:01;3;3;
49064;PMS5003;34876;51.464;-0.150;2023-04-06T16:36:30;4;4;
49064;PMS5003;34876;51.464;-0.150;2023-04-06T16:38:59;3;3;
49064;PMS5003;34876;51.464;-0.150;2023-04-06T16:41:29;5;5;
49064;PMS5003;34876;51.464;-0.150;2023-04-06T16:44:00;4;4;
49064;PMS5003;34876;51.464;-0.150;2023-04-06T16:46:30;1;1;
49064;PMS5003;34876;51.464;-0.150;2023-04-06T16:49:02;4;3;
49064;PMS5003;34876;51.464;-0.150;2023-04-06T16:51:33;4;4;
49064;PMS5003;34876;51.464;-0.150;2023-04-06T16:54:03;5;5;
49064;PMS5003;34876;51.464;-0.150;2023-04-06T16:56:32;3;3;